sensor_id;sensor_type;location;lat;lon;timestamp;P1;durP1;ratioP1;P2;durP2;ratioP2
33824;SDS011;20127;48.962;8.342;2024-03-02T00:00:04;8.32;;;7.53;;
33824;SDS011;20127;48.962;8.342;2024-03-02T00:01:24;9.52;;;8.10;;
33824;SDS011;20127;48.962;8.342;2024-03-02T00:02:39;11.60;;;7.53;;
33824;SDS011;20127;48.962;8.342;2024-03-02T00:03:55;11.10;;;9.60;;
33824;SDS011;20127;48.962;8.342;2024-03-02T00:05:09;9.95;;;7.43;;
33824;SDS011;20127;48.962;8.342;2024-03-02T00:06:25;12.02;;;8.55;;
33824;SDS011;20127;48.962;8.342;2024-03-02T00:07:39;11.57;;;7.22;;
33824;SDS011;20127;48.962;8.342;2024-03-02T00:08:56;9.38;;;7.93;;
33824;SDS011;20127;48.962;8.342;2024-03-02T00:10:13;9.70;;;8.80;;
33824;SDS011;20127;48.962;8.342;2024-03-02T00:11:33;10.35;;;7.50;;
33824;SDS011;20127;48.962;8.342;2024-03-02T00:12:47;11.70;;;9.50;;
33824;SDS011;20127;48.962;8.342;2024-03-02T00:14:02;11.02;;;8.65;;
33824;SDS011;20127;48.962;8.342;2024-03-02T00:15:23;8.65;;;7.57;;
33824;SDS011;20127;48.962;8.342;2024-03-02T00:16:48;8.90;;;7.97;;
33824;SDS011;20127;48.962;8.342;2024-03-02T00:18:01;10.27;;;8.00;;
33824;SDS011;20127;48.962;8.342;2024-03-02T00:19:18;9.75;;;7.70;;
33824;SDS011;20127;48.962;8.342;2024-03-02T00:20:32;8.65;;;7.35;;
33824;SDS011;20127;48.962;8.342;2024-03-02T00:21:46;8.82;;;6.88;;
33824;SDS011;20127;48.962;8.342;2024-03-02T00:23:02;8.60;;;6.90;;
33824;SDS011;20127;48.962;8.342;2024-03-02T00:24:19;11.52;;;7.72;;
33824;SDS011;20127;48.962;8.342;2024-03-02T00:25:43;12.30;;;7.95;;
33824;SDS011;20127;48.962;8.342;2024-03-02T00:26:58;10.27;;;8.23;;
33824;SDS011;20127;48.962;8.342;2024-03-02T00:28:16;11.90;;;9.85;;
33824;SDS011;20127;48.962;8.342;2024-03-02T00:29:32;10.48;;;8.70;;
33824;SDS011;20127;48.962;8.342;2024-03-02T00:30:50;13.90;;;9.15;;
33824;SDS011;20127;48.962;8.342;2024-03-02T00:32:07;10.00;;;7.88;;
33824;SDS011;20127;48.962;8.342;2024-03-02T00:33:26;10.63;;;9.60;;
33824;SDS011;20127;48.962;8.342;2024-03-02T00:34:43;13.10;;;8.48;;
33824;SDS011;20127;48.962;8.342;2024-03-02T00:35:57;12.63;;;9.13;;
33824;SDS011;20127;48.962;8.342;2024-03-02T00:37:12;14.40;;;8.85;;
33824;SDS011;20127;48.962;8.342;2024-03-02T00:38:27;10.60;;;8.48;;
33824;SDS011;20127;48.962;8.342;2024-03-02T00:39:42;12.05;;;7.88;;
33824;SDS011;20127;48.962;8.342;2024-03-02T00:40:56;11.63;;;9.30;;
33824;SDS011;20127;48.962;8.342;2024-03-02T00:42:10;13.00;;;8.88;;
33824;SDS011;20127;48.962;8.342;2024-03-02T00:45:11;8.38;;;7.43;;
33824;SDS011;20127;48.962;8.342;2024-03-02T00:46:26;9.40;;;6.88;;
33824;SDS011;20127;48.962;8.342;2024-03-02T00:47:42;8.75;;;7.88;;
33824;SDS011;20127;48.962;8.342;2024-03-02T00:48:56;10.70;;;7.10;;
33824;SDS011;20127;48.962;8.342;2024-03-02T00:50:13;11.88;;;7.40;;
33824;SDS011;20127;48.962;8.342;2024-03-02T00:51:27;8.38;;;7.32;;
33824;SDS011;20127;48.962;8.342;2024-03-02T00:52:42;9.00;;;7.32;;
33824;SDS011;20127;48.962;8.342;2024-03-02T00:53:58;11.43;;;7.82;;
33824;SDS011;20127;48.962;8.342;2024-03-02T00:55:13;12.23;;;6.63;;
33824;SDS011;20127;48.962;8.342;2024-03-02T00:56:26;11.77;;;7.43;;
33824;SDS011;20127;48.962;8.342;2024-03-02T00:57:41;8.80;;;7.68;;
33824;SDS011;20127;48.962;8.342;2024-03-02T00:58:55;8.50;;;7.57;;
33824;SDS011;20127;48.962;8.342;2024-03-02T01:00:10;10.43;;;7.93;;
33824;SDS011;20127;48.962;8.342;2024-03-02T01:01:28;10.63;;;7.43;;
33824;SDS011;20127;48.962;8.342;2024-03-02T01:02:42;10.25;;;7.40;;
33824;SDS011;20127;48.962;8.342;2024-03-02T01:03:58;11.00;;;9.20;;
33824;SDS011;20127;48.962;8.342;2024-03-02T01:05:14;11.35;;;8.13;;
33824;SDS011;20127;48.962;8.342;2024-03-02T01:06:27;10.82;;;8.23;;
33824;SDS011;20127;48.962;8.342;2024-03-02T01:07:42;9.75;;;7.45;;
33824;SDS011;20127;48.962;8.342;2024-03-02T01:08:55;10.77;;;7.90;;
33824;SDS011;20127;48.962;8.342;2024-03-02T01:10:10;11.95;;;8.68;;
33824;SDS011;20127;48.962;8.342;2024-03-02T01:11:23;11.35;;;8.40;;
33824;SDS011;20127;48.962;8.342;2024-03-02T01:12:38;10.75;;;8.57;;
33824;SDS011;20127;48.962;8.342;2024-03-02T01:13:52;9.35;;;7.88;;
33824;SDS011;20127;48.962;8.342;2024-03-02T01:15:07;10.13;;;7.55;;
33824;SDS011;20127;48.962;8.342;2024-03-02T01:16:21;9.63;;;7.82;;
33824;SDS011;20127;48.962;8.342;2024-03-02T01:17:35;7.90;;;6.63;;
33824;SDS011;20127;48.962;8.342;2024-03-02T01:18:49;10.38;;;8.25;;
33824;SDS011;20127;48.962;8.342;2024-03-02T01:20:03;9.48;;;6.40;;
33824;SDS011;20127;48.962;8.342;2024-03-02T01:21:19;7.95;;;6.55;;
33824;SDS011;20127;48.962;8.342;2024-03-02T01:22:34;9.95;;;6.75;;
33824;SDS011;20127;48.962;8.342;2024-03-02T01:23:47;9.35;;;8.02;;
33824;SDS011;20127;48.962;8.342;2024-03-02T01:25:02;11.82;;;7.95;;
33824;SDS011;20127;48.962;8.342;2024-03-02T01:26:15;10.30;;;7.75;;
33824;SDS011;20127;48.962;8.342;2024-03-02T01:27:30;8.73;;;7.20;;
33824;SDS011;20127;48.962;8.342;2024-03-02T01:28:43;12.30;;;7.47;;
33824;SDS011;20127;48.962;8.342;2024-03-02T01:29:58;8.05;;;7.25;;
33824;SDS011;20127;48.962;8.342;2024-03-02T01:31:12;10.05;;;8.30;;
33824;SDS011;20127;48.962;8.342;2024-03-02T01:32:27;10.05;;;7.30;;
33824;SDS011;20127;48.962;8.342;2024-03-02T01:33:40;9.95;;;7.15;;
33824;SDS011;20127;48.962;8.342;2024-03-02T01:34:55;9.63;;;7.45;;
33824;SDS011;20127;48.962;8.342;2024-03-02T01:36:09;8.05;;;6.82;;
33824;SDS011;20127;48.962;8.342;2024-03-02T01:37:24;9.52;;;6.85;;
33824;SDS011;20127;48.962;8.342;2024-03-02T01:38:38;9.90;;;7.43;;
33824;SDS011;20127;48.962;8.342;2024-03-02T01:39:52;9.60;;;8.18;;
33824;SDS011;20127;48.962;8.342;2024-03-02T01:41:06;9.30;;;7.63;;
33824;SDS011;20127;48.962;8.342;2024-03-02T01:42:21;9.63;;;7.47;;
33824;SDS011;20127;48.962;8.342;2024-03-02T01:43:35;11.77;;;8.02;;
33824;SDS011;20127;48.962;8.342;2024-03-02T01:44:49;10.57;;;8.48;;
33824;SDS011;20127;48.962;8.342;2024-03-02T01:46:03;10.05;;;7.97;;
33824;SDS011;20127;48.962;8.342;2024-03-02T01:47:18;9.57;;;7.40;;
33824;SDS011;20127;48.962;8.342;2024-03-02T01:48:31;9.30;;;7.32;;
33824;SDS011;20127;48.962;8.342;2024-03-02T01:49:45;11.32;;;7.18;;
33824;SDS011;20127;48.962;8.342;2024-03-02T01:50:59;9.35;;;7.00;;
33824;SDS011;20127;48.962;8.342;2024-03-02T01:52:14;8.75;;;7.72;;
33824;SDS011;20127;48.962;8.342;2024-03-02T01:53:29;9.35;;;6.50;;
33824;SDS011;20127;48.962;8.342;2024-03-02T01:54:43;9.13;;;6.72;;
33824;SDS011;20127;48.962;8.342;2024-03-02T01:55:57;11.20;;;7.40;;
33824;SDS011;20127;48.962;8.342;2024-03-02T01:57:11;10.60;;;8.15;;
33824;SDS011;20127;48.962;8.342;2024-03-02T01:58:25;7.78;;;6.68;;
33824;SDS011;20127;48.962;8.342;2024-03-02T01:59:39;9.43;;;6.93;;
33824;SDS011;20127;48.962;8.342;2024-03-02T02:00:53;7.72;;;6.85;;
33824;SDS011;20127;48.962;8.342;2024-03-02T02:02:07;11.15;;;7.50;;
33824;SDS011;20127;48.962;8.342;2024-03-02T02:03:21;8.27;;;6.13;;
33824;SDS011;20127;48.962;8.342;2024-03-02T02:04:35;11.30;;;7.22;;
33824;SDS011;20127;48.962;8.342;2024-03-02T02:05:49;8.75;;;6.93;;
33824;SDS011;20127;48.962;8.342;2024-03-02T02:07:03;13.57;;;8.40;;
33824;SDS011;20127;48.962;8.342;2024-03-02T02:08:17;9.80;;;6.47;;
33824;SDS011;20127;48.962;8.342;2024-03-02T02:09:33;15.60;;;9.05;;
33824;SDS011;20127;48.962;8.342;2024-03-02T02:10:46;7.22;;;6.53;;
33824;SDS011;20127;48.962;8.342;2024-03-02T02:12:01;9.95;;;7.15;;
33824;SDS011;20127;48.962;8.342;2024-03-02T02:13:15;6.90;;;6.10;;
33824;SDS011;20127;48.962;8.342;2024-03-02T02:14:30;10.75;;;7.35;;
33824;SDS011;20127;48.962;8.342;2024-03-02T02:15:43;7.55;;;6.72;;
33824;SDS011;20127;48.962;8.342;2024-03-02T02:16:58;8.77;;;7.40;;
33824;SDS011;20127;48.962;8.342;2024-03-02T02:18:11;10.52;;;6.80;;
33824;SDS011;20127;48.962;8.342;2024-03-02T02:19:25;8.80;;;6.95;;
33824;SDS011;20127;48.962;8.342;2024-03-02T02:20:39;9.95;;;7.55;;
33824;SDS011;20127;48.962;8.342;2024-03-02T02:21:55;8.88;;;7.13;;
33824;SDS011;20127;48.962;8.342;2024-03-02T02:23:08;8.00;;;6.60;;
33824;SDS011;20127;48.962;8.342;2024-03-02T02:24:23;10.48;;;7.22;;
33824;SDS011;20127;48.962;8.342;2024-03-02T02:25:36;11.50;;;8.40;;
33824;SDS011;20127;48.962;8.342;2024-03-02T02:26:51;7.60;;;6.80;;
33824;SDS011;20127;48.962;8.342;2024-03-02T02:28:04;8.98;;;7.38;;
33824;SDS011;20127;48.962;8.342;2024-03-02T02:29:19;12.48;;;7.55;;
33824;SDS011;20127;48.962;8.342;2024-03-02T02:30:32;11.60;;;8.18;;
33824;SDS011;20127;48.962;8.342;2024-03-02T02:31:47;8.45;;;6.22;;
33824;SDS011;20127;48.962;8.342;2024-03-02T02:33:01;7.50;;;6.50;;
33824;SDS011;20127;48.962;8.342;2024-03-02T02:34:15;9.40;;;7.00;;
33824;SDS011;20127;48.962;8.342;2024-03-02T02:35:29;13.10;;;7.53;;
33824;SDS011;20127;48.962;8.342;2024-03-02T02:36:43;6.25;;;5.50;;
33824;SDS011;20127;48.962;8.342;2024-03-02T02:37:58;12.38;;;6.97;;
33824;SDS011;20127;48.962;8.342;2024-03-02T02:39:15;8.65;;;6.30;;
33824;SDS011;20127;48.962;8.342;2024-03-02T02:40:29;5.32;;;4.82;;
33824;SDS011;20127;48.962;8.342;2024-03-02T02:41:44;7.32;;;5.85;;
33824;SDS011;20127;48.962;8.342;2024-03-02T02:42:57;7.93;;;6.85;;
33824;SDS011;20127;48.962;8.342;2024-03-02T02:44:12;6.25;;;5.65;;
33824;SDS011;20127;48.962;8.342;2024-03-02T02:45:26;7.50;;;6.20;;
33824;SDS011;20127;48.962;8.342;2024-03-02T02:46:40;9.77;;;6.40;;
33824;SDS011;20127;48.962;8.342;2024-03-02T02:47:54;8.48;;;6.20;;
33824;SDS011;20127;48.962;8.342;2024-03-02T02:49:08;8.45;;;4.95;;
33824;SDS011;20127;48.962;8.342;2024-03-02T02:50:22;7.25;;;6.25;;
33824;SDS011;20127;48.962;8.342;2024-03-02T02:51:36;7.93;;;5.55;;
33824;SDS011;20127;48.962;8.342;2024-03-02T02:52:50;8.00;;;7.20;;
33824;SDS011;20127;48.962;8.342;2024-03-02T02:54:05;5.47;;;4.88;;
33824;SDS011;20127;48.962;8.342;2024-03-02T02:55:19;8.85;;;5.68;;
33824;SDS011;20127;48.962;8.342;2024-03-02T02:56:33;12.25;;;6.63;;
33824;SDS011;20127;48.962;8.342;2024-03-02T02:57:47;7.60;;;5.50;;
33824;SDS011;20127;48.962;8.342;2024-03-02T02:59:01;7.57;;;6.32;;
33824;SDS011;20127;48.962;8.342;2024-03-02T03:00:15;6.88;;;5.68;;
33824;SDS011;20127;48.962;8.342;2024-03-02T03:01:31;7.93;;;6.72;;
33824;SDS011;20127;48.962;8.342;2024-03-02T03:02:45;7.25;;;5.65;;
33824;SDS011;20127;48.962;8.342;2024-03-02T03:04:01;7.90;;;6.05;;
33824;SDS011;20127;48.962;8.342;2024-03-02T03:05:14;7.88;;;6.07;;
33824;SDS011;20127;48.962;8.342;2024-03-02T03:06:29;6.43;;;5.15;;
33824;SDS011;20127;48.962;8.342;2024-03-02T03:07:43;7.13;;;5.15;;
33824;SDS011;20127;48.962;8.342;2024-03-02T03:08:57;9.95;;;5.47;;
33824;SDS011;20127;48.962;8.342;2024-03-02T03:10:12;6.93;;;5.80;;
33824;SDS011;20127;48.962;8.342;2024-03-02T03:11:27;7.15;;;5.68;;
33824;SDS011;20127;48.962;8.342;2024-03-02T03:12:40;6.63;;;5.32;;
33824;SDS011;20127;48.962;8.342;2024-03-02T03:13:55;8.13;;;5.60;;
33824;SDS011;20127;48.962;8.342;2024-03-02T03:15:09;8.35;;;6.55;;
33824;SDS011;20127;48.962;8.342;2024-03-02T03:16:24;7.03;;;6.18;;
33824;SDS011;20127;48.962;8.342;2024-03-02T03:17:38;7.13;;;5.70;;
33824;SDS011;20127;48.962;8.342;2024-03-02T03:18:52;9.70;;;6.32;;
33824;SDS011;20127;48.962;8.342;2024-03-02T03:20:06;9.57;;;6.93;;
33824;SDS011;20127;48.962;8.342;2024-03-02T03:21:23;7.38;;;5.10;;
33824;SDS011;20127;48.962;8.342;2024-03-02T03:22:37;8.85;;;4.97;;
33824;SDS011;20127;48.962;8.342;2024-03-02T03:23:51;6.68;;;5.32;;
33824;SDS011;20127;48.962;8.342;2024-03-02T03:25:05;7.07;;;5.93;;
33824;SDS011;20127;48.962;8.342;2024-03-02T03:26:22;6.68;;;5.25;;
33824;SDS011;20127;48.962;8.342;2024-03-02T03:27:35;8.57;;;5.53;;
33824;SDS011;20127;48.962;8.342;2024-03-02T03:28:50;7.57;;;5.95;;
33824;SDS011;20127;48.962;8.342;2024-03-02T03:30:04;5.63;;;5.07;;
33824;SDS011;20127;48.962;8.342;2024-03-02T03:31:20;7.97;;;4.97;;
33824;SDS011;20127;48.962;8.342;2024-03-02T03:32:33;6.05;;;5.30;;
33824;SDS011;20127;48.962;8.342;2024-03-02T03:33:47;5.95;;;5.15;;
33824;SDS011;20127;48.962;8.342;2024-03-02T03:35:01;7.28;;;5.65;;
33824;SDS011;20127;48.962;8.342;2024-03-02T03:36:15;9.50;;;6.90;;
33824;SDS011;20127;48.962;8.342;2024-03-02T03:37:29;9.15;;;5.57;;
33824;SDS011;20127;48.962;8.342;2024-03-02T03:38:45;5.85;;;4.93;;
33824;SDS011;20127;48.962;8.342;2024-03-02T03:39:59;5.07;;;4.38;;
33824;SDS011;20127;48.962;8.342;2024-03-02T03:41:14;6.50;;;4.85;;
33824;SDS011;20127;48.962;8.342;2024-03-02T03:42:29;10.32;;;4.53;;
33824;SDS011;20127;48.962;8.342;2024-03-02T03:43:44;9.27;;;6.00;;
33824;SDS011;20127;48.962;8.342;2024-03-02T03:44:57;5.63;;;4.28;;
33824;SDS011;20127;48.962;8.342;2024-03-02T03:46:12;8.45;;;5.43;;
33824;SDS011;20127;48.962;8.342;2024-03-02T03:47:25;5.45;;;4.90;;
33824;SDS011;20127;48.962;8.342;2024-03-02T03:48:39;5.82;;;5.00;;
33824;SDS011;20127;48.962;8.342;2024-03-02T03:49:53;5.50;;;4.82;;
33824;SDS011;20127;48.962;8.342;2024-03-02T03:51:07;9.07;;;5.35;;
33824;SDS011;20127;48.962;8.342;2024-03-02T03:52:21;9.73;;;6.43;;
33824;SDS011;20127;48.962;8.342;2024-03-02T03:53:35;5.18;;;4.47;;
33824;SDS011;20127;48.962;8.342;2024-03-02T03:54:49;8.52;;;5.38;;
33824;SDS011;20127;48.962;8.342;2024-03-02T03:56:03;8.20;;;5.65;;
33824;SDS011;20127;48.962;8.342;2024-03-02T03:57:17;6.45;;;4.85;;
33824;SDS011;20127;48.962;8.342;2024-03-02T03:58:33;7.65;;;5.32;;
33824;SDS011;20127;48.962;8.342;2024-03-02T03:59:46;7.63;;;5.47;;
33824;SDS011;20127;48.962;8.342;2024-03-02T04:01:01;5.15;;;4.55;;
33824;SDS011;20127;48.962;8.342;2024-03-02T04:02:15;6.85;;;4.88;;
33824;SDS011;20127;48.962;8.342;2024-03-02T04:03:29;5.70;;;4.60;;
33824;SDS011;20127;48.962;8.342;2024-03-02T04:04:43;9.48;;;5.85;;
33824;SDS011;20127;48.962;8.342;2024-03-02T04:05:57;8.20;;;5.93;;
33824;SDS011;20127;48.962;8.342;2024-03-02T04:07:11;8.40;;;6.40;;
33824;SDS011;20127;48.962;8.342;2024-03-02T04:08:25;9.85;;;7.07;;
33824;SDS011;20127;48.962;8.342;2024-03-02T04:09:39;6.38;;;5.07;;
33824;SDS011;20127;48.962;8.342;2024-03-02T04:10:52;8.13;;;5.07;;
33824;SDS011;20127;48.962;8.342;2024-03-02T04:12:07;8.10;;;5.60;;
33824;SDS011;20127;48.962;8.342;2024-03-02T04:13:20;6.45;;;5.85;;
33824;SDS011;20127;48.962;8.342;2024-03-02T04:14:36;6.43;;;5.18;;
33824;SDS011;20127;48.962;8.342;2024-03-02T04:15:50;8.10;;;5.88;;
33824;SDS011;20127;48.962;8.342;2024-03-02T04:17:05;5.40;;;4.72;;
33824;SDS011;20127;48.962;8.342;2024-03-02T04:18:18;7.40;;;5.68;;
33824;SDS011;20127;48.962;8.342;2024-03-02T04:19:33;5.55;;;5.05;;
33824;SDS011;20127;48.962;8.342;2024-03-02T04:20:47;6.53;;;4.70;;
33824;SDS011;20127;48.962;8.342;2024-03-02T04:22:04;8.20;;;5.90;;
33824;SDS011;20127;48.962;8.342;2024-03-02T04:23:18;6.47;;;5.35;;
33824;SDS011;20127;48.962;8.342;2024-03-02T04:24:32;5.70;;;5.18;;
33824;SDS011;20127;48.962;8.342;2024-03-02T04:25:46;5.97;;;5.13;;
33824;SDS011;20127;48.962;8.342;2024-03-02T04:27:00;9.02;;;6.63;;
33824;SDS011;20127;48.962;8.342;2024-03-02T04:28:13;6.55;;;4.68;;
33824;SDS011;20127;48.962;8.342;2024-03-02T04:29:28;8.05;;;5.60;;
33824;SDS011;20127;48.962;8.342;2024-03-02T04:30:43;6.07;;;4.97;;
33824;SDS011;20127;48.962;8.342;2024-03-02T04:31:57;7.65;;;4.88;;
33824;SDS011;20127;48.962;8.342;2024-03-02T04:33:11;4.35;;;3.95;;
33824;SDS011;20127;48.962;8.342;2024-03-02T04:34:25;5.32;;;4.55;;
33824;SDS011;20127;48.962;8.342;2024-03-02T04:35:39;5.78;;;5.07;;
33824;SDS011;20127;48.962;8.342;2024-03-02T04:36:53;7.75;;;4.25;;
33824;SDS011;20127;48.962;8.342;2024-03-02T04:38:07;6.45;;;4.25;;
33824;SDS011;20127;48.962;8.342;2024-03-02T04:39:21;7.72;;;4.43;;
33824;SDS011;20127;48.962;8.342;2024-03-02T04:40:35;8.73;;;5.90;;
33824;SDS011;20127;48.962;8.342;2024-03-02T04:41:49;7.15;;;5.07;;
33824;SDS011;20127;48.962;8.342;2024-03-02T04:43:03;8.75;;;5.10;;
33824;SDS011;20127;48.962;8.342;2024-03-02T04:44:17;7.63;;;6.18;;
33824;SDS011;20127;48.962;8.342;2024-03-02T04:45:31;14.20;;;7.35;;
33824;SDS011;20127;48.962;8.342;2024-03-02T04:46:46;7.20;;;5.28;;
33824;SDS011;20127;48.962;8.342;2024-03-02T04:48:00;5.53;;;5.03;;
33824;SDS011;20127;48.962;8.342;2024-03-02T04:49:14;6.30;;;4.55;;
33824;SDS011;20127;48.962;8.342;2024-03-02T04:50:28;6.63;;;5.10;;
33824;SDS011;20127;48.962;8.342;2024-03-02T04:51:42;6.75;;;4.88;;
33824;SDS011;20127;48.962;8.342;2024-03-02T04:52:56;7.22;;;4.70;;
33824;SDS011;20127;48.962;8.342;2024-03-02T04:54:10;5.20;;;4.70;;
33824;SDS011;20127;48.962;8.342;2024-03-02T04:55:27;5.53;;;4.47;;
33824;SDS011;20127;48.962;8.342;2024-03-02T04:57:05;7.10;;;5.20;;
33824;SDS011;20127;48.962;8.342;2024-03-02T04:58:20;8.52;;;5.13;;
33824;SDS011;20127;48.962;8.342;2024-03-02T04:59:34;5.37;;;4.40;;
33824;SDS011;20127;48.962;8.342;2024-03-02T05:00:48;6.45;;;4.80;;
33824;SDS011;20127;48.962;8.342;2024-03-02T05:02:03;9.57;;;6.35;;
33824;SDS011;20127;48.962;8.342;2024-03-02T05:03:17;6.70;;;4.50;;
33824;SDS011;20127;48.962;8.342;2024-03-02T05:04:31;7.22;;;4.25;;
33824;SDS011;20127;48.962;8.342;2024-03-02T05:05:45;5.90;;;4.35;;
33824;SDS011;20127;48.962;8.342;2024-03-02T05:06:59;5.32;;;4.28;;
33824;SDS011;20127;48.962;8.342;2024-03-02T05:08:14;7.65;;;4.93;;
33824;SDS011;20127;48.962;8.342;2024-03-02T05:09:29;6.55;;;4.15;;
33824;SDS011;20127;48.962;8.342;2024-03-02T05:10:43;7.85;;;4.93;;
33824;SDS011;20127;48.962;8.342;2024-03-02T05:11:57;6.78;;;6.05;;
33824;SDS011;20127;48.962;8.342;2024-03-02T05:13:30;5.55;;;5.00;;
33824;SDS011;20127;48.962;8.342;2024-03-02T05:14:45;5.35;;;4.15;;
33824;SDS011;20127;48.962;8.342;2024-03-02T05:15:58;5.95;;;4.00;;
33824;SDS011;20127;48.962;8.342;2024-03-02T05:17:14;4.82;;;4.28;;
33824;SDS011;20127;48.962;8.342;2024-03-02T05:18:27;7.35;;;4.07;;
33824;SDS011;20127;48.962;8.342;2024-03-02T05:19:42;5.85;;;5.20;;
33824;SDS011;20127;48.962;8.342;2024-03-02T05:20:55;4.65;;;4.25;;
33824;SDS011;20127;48.962;8.342;2024-03-02T05:22:10;5.47;;;4.13;;
33824;SDS011;20127;48.962;8.342;2024-03-02T05:23:23;5.18;;;3.90;;
33824;SDS011;20127;48.962;8.342;2024-03-02T05:24:38;5.38;;;4.82;;
33824;SDS011;20127;48.962;8.342;2024-03-02T05:25:51;5.38;;;4.88;;
33824;SDS011;20127;48.962;8.342;2024-03-02T05:27:06;6.50;;;5.53;;
33824;SDS011;20127;48.962;8.342;2024-03-02T05:28:20;4.07;;;3.63;;
33824;SDS011;20127;48.962;8.342;2024-03-02T05:29:34;5.10;;;3.88;;
33824;SDS011;20127;48.962;8.342;2024-03-02T05:30:48;5.43;;;4.85;;
33824;SDS011;20127;48.962;8.342;2024-03-02T05:32:02;5.95;;;4.40;;
33824;SDS011;20127;48.962;8.342;2024-03-02T05:33:17;7.60;;;5.30;;
33824;SDS011;20127;48.962;8.342;2024-03-02T05:34:35;12.68;;;6.28;;
33824;SDS011;20127;48.962;8.342;2024-03-02T05:35:48;6.00;;;4.70;;
33824;SDS011;20127;48.962;8.342;2024-03-02T05:37:03;6.32;;;5.35;;
33824;SDS011;20127;48.962;8.342;2024-03-02T05:38:17;7.43;;;4.57;;
33824;SDS011;20127;48.962;8.342;2024-03-02T05:39:31;8.52;;;4.60;;
33824;SDS011;20127;48.962;8.342;2024-03-02T05:40:45;4.80;;;4.30;;
33824;SDS011;20127;48.962;8.342;2024-03-02T05:41:59;9.20;;;6.75;;
33824;SDS011;20127;48.962;8.342;2024-03-02T05:43:13;6.47;;;4.72;;
33824;SDS011;20127;48.962;8.342;2024-03-02T05:44:27;6.95;;;4.60;;
33824;SDS011;20127;48.962;8.342;2024-03-02T05:45:40;7.88;;;5.18;;
33824;SDS011;20127;48.962;8.342;2024-03-02T05:46:55;8.70;;;5.82;;
33824;SDS011;20127;48.962;8.342;2024-03-02T05:48:08;6.40;;;5.03;;
33824;SDS011;20127;48.962;8.342;2024-03-02T05:49:24;10.50;;;5.97;;
33824;SDS011;20127;48.962;8.342;2024-03-02T05:50:38;5.95;;;5.35;;
33824;SDS011;20127;48.962;8.342;2024-03-02T05:51:52;6.40;;;5.47;;
33824;SDS011;20127;48.962;8.342;2024-03-02T05:53:06;10.13;;;5.85;;
33824;SDS011;20127;48.962;8.342;2024-03-02T05:54:20;7.72;;;5.47;;
33824;SDS011;20127;48.962;8.342;2024-03-02T05:55:34;8.75;;;5.30;;
33824;SDS011;20127;48.962;8.342;2024-03-02T05:56:48;6.93;;;5.25;;
33824;SDS011;20127;48.962;8.342;2024-03-02T05:58:02;12.15;;;5.22;;
33824;SDS011;20127;48.962;8.342;2024-03-02T05:59:30;8.93;;;5.13;;
33824;SDS011;20127;48.962;8.342;2024-03-02T06:00:45;7.35;;;4.88;;
33824;SDS011;20127;48.962;8.342;2024-03-02T06:01:58;8.10;;;5.20;;
33824;SDS011;20127;48.962;8.342;2024-03-02T06:03:13;5.35;;;4.85;;
33824;SDS011;20127;48.962;8.342;2024-03-02T06:04:27;6.63;;;4.47;;
33824;SDS011;20127;48.962;8.342;2024-03-02T06:05:42;6.22;;;4.07;;
33824;SDS011;20127;48.962;8.342;2024-03-02T06:06:55;9.00;;;5.25;;
33824;SDS011;20127;48.962;8.342;2024-03-02T06:08:10;6.57;;;5.10;;
33824;SDS011;20127;48.962;8.342;2024-03-02T06:09:23;7.93;;;6.53;;
33824;SDS011;20127;48.962;8.342;2024-03-02T06:10:39;7.05;;;4.55;;
33824;SDS011;20127;48.962;8.342;2024-03-02T06:11:53;7.50;;;6.18;;
33824;SDS011;20127;48.962;8.342;2024-03-02T06:13:07;7.93;;;6.43;;
33824;SDS011;20127;48.962;8.342;2024-03-02T06:14:21;8.40;;;6.15;;
33824;SDS011;20127;48.962;8.342;2024-03-02T06:15:35;11.63;;;6.83;;
33824;SDS011;20127;48.962;8.342;2024-03-02T06:16:49;9.10;;;7.70;;
33824;SDS011;20127;48.962;8.342;2024-03-02T06:18:04;7.18;;;4.88;;
33824;SDS011;20127;48.962;8.342;2024-03-02T06:19:19;5.32;;;4.53;;
33824;SDS011;20127;48.962;8.342;2024-03-02T06:20:35;6.32;;;4.78;;
33824;SDS011;20127;48.962;8.342;2024-03-02T06:21:50;6.88;;;5.82;;
33824;SDS011;20127;48.962;8.342;2024-03-02T06:23:04;3.92;;;3.53;;
33824;SDS011;20127;48.962;8.342;2024-03-02T06:24:18;6.70;;;5.13;;
33824;SDS011;20127;48.962;8.342;2024-03-02T06:25:32;7.82;;;4.72;;
33824;SDS011;20127;48.962;8.342;2024-03-02T06:26:46;6.57;;;4.82;;
33824;SDS011;20127;48.962;8.342;2024-03-02T06:28:01;7.25;;;5.63;;
33824;SDS011;20127;48.962;8.342;2024-03-02T06:29:14;7.80;;;4.28;;
33824;SDS011;20127;48.962;8.342;2024-03-02T06:30:29;4.53;;;4.13;;
33824;SDS011;20127;48.962;8.342;2024-03-02T06:31:42;10.13;;;4.57;;
33824;SDS011;20127;48.962;8.342;2024-03-02T06:32:57;8.50;;;4.80;;
33824;SDS011;20127;48.962;8.342;2024-03-02T06:34:10;6.70;;;4.43;;
33824;SDS011;20127;48.962;8.342;2024-03-02T06:35:25;17.05;;;5.20;;
33824;SDS011;20127;48.962;8.342;2024-03-02T06:36:39;10.32;;;4.82;;
33824;SDS011;20127;48.962;8.342;2024-03-02T06:37:55;11.00;;;5.68;;
33824;SDS011;20127;48.962;8.342;2024-03-02T06:39:09;9.88;;;5.80;;
33824;SDS011;20127;48.962;8.342;2024-03-02T06:40:24;6.32;;;4.97;;
33824;SDS011;20127;48.962;8.342;2024-03-02T06:41:37;6.72;;;4.32;;
33824;SDS011;20127;48.962;8.342;2024-03-02T06:42:51;21.85;;;5.40;;
33824;SDS011;20127;48.962;8.342;2024-03-02T06:44:05;6.82;;;4.72;;
33824;SDS011;20127;48.962;8.342;2024-03-02T06:45:19;12.25;;;7.95;;
33824;SDS011;20127;48.962;8.342;2024-03-02T06:46:33;6.30;;;4.95;;
33824;SDS011;20127;48.962;8.342;2024-03-02T06:47:47;10.77;;;4.45;;
33824;SDS011;20127;48.962;8.342;2024-03-02T06:49:01;7.80;;;4.35;;
33824;SDS011;20127;48.962;8.342;2024-03-02T06:50:15;7.20;;;5.25;;
33824;SDS011;20127;48.962;8.342;2024-03-02T06:51:29;12.43;;;4.50;;
33824;SDS011;20127;48.962;8.342;2024-03-02T06:52:45;6.38;;;3.92;;
33824;SDS011;20127;48.962;8.342;2024-03-02T06:53:58;7.20;;;4.80;;
33824;SDS011;20127;48.962;8.342;2024-03-02T06:55:13;10.07;;;4.53;;
33824;SDS011;20127;48.962;8.342;2024-03-02T06:56:27;8.82;;;4.47;;
33824;SDS011;20127;48.962;8.342;2024-03-02T06:57:41;4.72;;;4.13;;
33824;SDS011;20127;48.962;8.342;2024-03-02T06:58:55;10.70;;;5.00;;
33824;SDS011;20127;48.962;8.342;2024-03-02T07:00:10;13.40;;;4.50;;
33824;SDS011;20127;48.962;8.342;2024-03-02T07:01:24;7.18;;;5.25;;
33824;SDS011;20127;48.962;8.342;2024-03-02T07:02:39;7.07;;;5.60;;
33824;SDS011;20127;48.962;8.342;2024-03-02T07:03:54;5.78;;;2.95;;
33824;SDS011;20127;48.962;8.342;2024-03-02T07:05:09;7.18;;;4.35;;
33824;SDS011;20127;48.962;8.342;2024-03-02T07:06:22;9.45;;;4.68;;
33824;SDS011;20127;48.962;8.342;2024-03-02T07:07:37;9.25;;;4.60;;
33824;SDS011;20127;48.962;8.342;2024-03-02T07:08:52;6.15;;;4.45;;
33824;SDS011;20127;48.962;8.342;2024-03-02T07:10:07;6.78;;;3.78;;
33824;SDS011;20127;48.962;8.342;2024-03-02T07:11:20;13.15;;;6.47;;
33824;SDS011;20127;48.962;8.342;2024-03-02T07:12:35;8.45;;;4.72;;
33824;SDS011;20127;48.962;8.342;2024-03-02T07:13:48;5.68;;;5.03;;
33824;SDS011;20127;48.962;8.342;2024-03-02T07:15:03;6.35;;;5.57;;
33824;SDS011;20127;48.962;8.342;2024-03-02T07:16:36;7.85;;;6.53;;
33824;SDS011;20127;48.962;8.342;2024-03-02T07:17:53;7.95;;;6.10;;
33824;SDS011;20127;48.962;8.342;2024-03-02T07:19:06;8.15;;;6.45;;
33824;SDS011;20127;48.962;8.342;2024-03-02T07:20:20;8.60;;;6.82;;
33824;SDS011;20127;48.962;8.342;2024-03-02T07:21:34;7.55;;;6.40;;
33824;SDS011;20127;48.962;8.342;2024-03-02T07:22:49;8.68;;;7.78;;
33824;SDS011;20127;48.962;8.342;2024-03-02T07:24:03;10.90;;;9.02;;
33824;SDS011;20127;48.962;8.342;2024-03-02T07:25:19;8.18;;;6.82;;
33824;SDS011;20127;48.962;8.342;2024-03-02T07:26:33;7.43;;;6.75;;
33824;SDS011;20127;48.962;8.342;2024-03-02T07:27:47;5.50;;;5.00;;
33824;SDS011;20127;48.962;8.342;2024-03-02T07:29:00;5.72;;;5.13;;
33824;SDS011;20127;48.962;8.342;2024-03-02T07:30:15;8.57;;;5.50;;